sensor_id;sensor_type;location;lat;lon;timestamp;P1;durP1;ratioP1;P2;durP2;ratioP2
23812;SDS011;12087;45.190;5.688;2023-03-01T00:03:32;22.63;;;16.33;;
23812;SDS011;12087;45.190;5.688;2023-03-01T00:08:55;21.55;;;15.45;;
23812;SDS011;12087;45.190;5.688;2023-03-01T00:14:18;22.75;;;15.77;;
23812;SDS011;12087;45.190;5.688;2023-03-01T00:19:41;20.30;;;16.00;;
23812;SDS011;12087;45.190;5.688;2023-03-01T00:25:03;20.77;;;15.68;;
23812;SDS011;12087;45.190;5.688;2023-03-01T00:30:27;20.40;;;15.80;;
23812;SDS011;12087;45.190;5.688;2023-03-01T00:35:49;24.50;;;16.02;;
23812;SDS011;12087;45.190;5.688;2023-03-01T00:41:12;19.40;;;15.30;;
23812;SDS011;12087;45.190;5.688;2023-03-01T00:46:37;22.73;;;16.35;;
23812;SDS011;12087;45.190;5.688;2023-03-01T00:51:59;20.30;;;16.15;;
23812;SDS011;12087;45.190;5.688;2023-03-01T00:57:21;20.02;;;16.33;;
23812;SDS011;12087;45.190;5.688;2023-03-01T01:02:45;19.42;;;16.23;;
23812;SDS011;12087;45.190;5.688;2023-03-01T01:08:07;19.98;;;15.73;;
23812;SDS011;12087;45.190;5.688;2023-03-01T01:13:29;18.50;;;15.02;;
23812;SDS011;12087;45.190;5.688;2023-03-01T01:18:53;22.30;;;16.20;;
23812;SDS011;12087;45.190;5.688;2023-03-01T01:24:16;21.33;;;17.00;;
23812;SDS011;12087;45.190;5.688;2023-03-01T01:29:38;23.20;;;16.13;;
23812;SDS011;12087;45.190;5.688;2023-03-01T01:35:03;18.80;;;15.68;;
23812;SDS011;12087;45.190;5.688;2023-03-01T01:40:26;26.70;;;16.33;;
23812;SDS011;12087;45.190;5.688;2023-03-01T01:45:48;19.83;;;15.23;;
23812;SDS011;12087;45.190;5.688;2023-03-01T01:51:13;20.85;;;15.90;;
23812;SDS011;12087;45.190;5.688;2023-03-01T01:56:40;18.15;;;15.05;;
23812;SDS011;12087;45.190;5.688;2023-03-01T02:02:05;21.27;;;16.70;;
23812;SDS011;12087;45.190;5.688;2023-03-01T02:07:29;22.00;;;15.98;;
23812;SDS011;12087;45.190;5.688;2023-03-01T02:12:52;25.40;;;15.98;;
23812;SDS011;12087;45.190;5.688;2023-03-01T02:18:17;22.88;;;16.05;;
23812;SDS011;12087;45.190;5.688;2023-03-01T02:23:41;20.35;;;15.98;;
23812;SDS011;12087;45.190;5.688;2023-03-01T02:29:05;22.27;;;16.55;;
23812;SDS011;12087;45.190;5.688;2023-03-01T02:34:28;24.05;;;17.55;;
23812;SDS011;12087;45.190;5.688;2023-03-01T02:39:55;22.50;;;16.20;;
23812;SDS011;12087;45.190;5.688;2023-03-01T02:45:22;25.08;;;17.90;;
23812;SDS011;12087;45.190;5.688;2023-03-01T02:50:47;25.20;;;18.65;;
23812;SDS011;12087;45.190;5.688;2023-03-01T02:56:15;25.98;;;19.63;;
23812;SDS011;12087;45.190;5.688;2023-03-01T03:01:40;25.92;;;19.70;;
23812;SDS011;12087;45.190;5.688;2023-03-01T03:07:02;24.30;;;19.38;;
23812;SDS011;12087;45.190;5.688;2023-03-01T03:12:24;27.60;;;20.83;;
23812;SDS011;12087;45.190;5.688;2023-03-01T03:17:48;26.30;;;19.27;;
23812;SDS011;12087;45.190;5.688;2023-03-01T03:23:11;26.00;;;19.35;;
23812;SDS011;12087;45.190;5.688;2023-03-01T03:28:34;24.92;;;19.00;;
23812;SDS011;12087;45.190;5.688;2023-03-01T03:34:01;27.23;;;19.92;;
23812;SDS011;12087;45.190;5.688;2023-03-01T03:39:23;24.98;;;19.55;;
23812;SDS011;12087;45.190;5.688;2023-03-01T03:44:45;27.08;;;19.40;;
23812;SDS011;12087;45.190;5.688;2023-03-01T03:50:10;26.70;;;19.83;;
23812;SDS011;12087;45.190;5.688;2023-03-01T03:55:33;27.17;;;20.10;;
23812;SDS011;12087;45.190;5.688;2023-03-01T04:00:59;32.10;;;21.02;;
23812;SDS011;12087;45.190;5.688;2023-03-01T04:06:23;26.80;;;20.80;;
23812;SDS011;12087;45.190;5.688;2023-03-01T04:11:45;24.60;;;19.02;;
23812;SDS011;12087;45.190;5.688;2023-03-01T04:17:07;26.65;;;20.45;;
23812;SDS011;12087;45.190;5.688;2023-03-01T04:22:31;27.45;;;19.88;;
23812;SDS011;12087;45.190;5.688;2023-03-01T04:27:55;32.83;;;21.60;;
23812;SDS011;12087;45.190;5.688;2023-03-01T04:33:17;27.52;;;21.17;;
23812;SDS011;12087;45.190;5.688;2023-03-01T04:38:41;28.63;;;21.00;;
23812;SDS011;12087;45.190;5.688;2023-03-01T04:44:07;30.77;;;21.95;;
23812;SDS011;12087;45.190;5.688;2023-03-01T04:49:29;31.02;;;21.20;;
23812;SDS011;12087;45.190;5.688;2023-03-01T04:54:53;29.65;;;20.73;;
23812;SDS011;12087;45.190;5.688;2023-03-01T05:00:15;26.70;;;20.75;;
23812;SDS011;12087;45.190;5.688;2023-03-01T05:05:44;35.03;;;24.15;;
23812;SDS011;12087;45.190;5.688;2023-03-01T05:11:09;28.70;;;21.75;;
23812;SDS011;12087;45.190;5.688;2023-03-01T05:16:33;30.75;;;22.05;;
23812;SDS011;12087;45.190;5.688;2023-03-01T05:21:56;29.35;;;22.02;;
23812;SDS011;12087;45.190;5.688;2023-03-01T05:27:27;31.37;;;22.53;;
23812;SDS011;12087;45.190;5.688;2023-03-01T05:32:50;30.65;;;22.52;;
23812;SDS011;12087;45.190;5.688;2023-03-01T05:38:15;32.35;;;20.83;;
23812;SDS011;12087;45.190;5.688;2023-03-01T05:43:40;32.00;;;22.90;;
23812;SDS011;12087;45.190;5.688;2023-03-01T05:49:04;30.27;;;22.27;;
23812;SDS011;12087;45.190;5.688;2023-03-01T05:54:27;29.30;;;21.52;;
23812;SDS011;12087;45.190;5.688;2023-03-01T05:59:50;30.73;;;22.75;;
23812;SDS011;12087;45.190;5.688;2023-03-01T06:05:13;28.88;;;21.98;;
23812;SDS011;12087;45.190;5.688;2023-03-01T06:10:36;31.88;;;22.73;;
23812;SDS011;12087;45.190;5.688;2023-03-01T06:16:00;28.15;;;21.52;;
23812;SDS011;12087;45.190;5.688;2023-03-01T06:21:22;27.52;;;20.30;;
23812;SDS011;12087;45.190;5.688;2023-03-01T06:26:44;27.23;;;20.65;;
23812;SDS011;12087;45.190;5.688;2023-03-01T06:32:08;30.23;;;21.23;;
23812;SDS011;12087;45.190;5.688;2023-03-01T06:37:30;34.47;;;21.25;;
23812;SDS011;12087;45.190;5.688;2023-03-01T06:42:52;30.95;;;23.52;;
23812;SDS011;12087;45.190;5.688;2023-03-01T06:48:16;29.17;;;22.52;;
23812;SDS011;12087;45.190;5.688;2023-03-01T06:53:38;29.40;;;21.50;;
23812;SDS011;12087;45.190;5.688;2023-03-01T06:59:00;29.17;;;21.80;;
23812;SDS011;12087;45.190;5.688;2023-03-01T07:04:24;31.17;;;22.83;;
23812;SDS011;12087;45.190;5.688;2023-03-01T07:09:48;32.33;;;22.25;;
23812;SDS011;12087;45.190;5.688;2023-03-01T07:15:11;28.83;;;21.42;;
23812;SDS011;12087;45.190;5.688;2023-03-01T07:20:36;31.13;;;22.52;;
23812;SDS011;12087;45.190;5.688;2023-03-01T07:25:59;40.40;;;24.30;;
23812;SDS011;12087;45.190;5.688;2023-03-01T07:31:21;31.42;;;22.10;;
23812;SDS011;12087;45.190;5.688;2023-03-01T07:36:45;33.90;;;22.00;;
23812;SDS011;12087;45.190;5.688;2023-03-01T07:42:07;34.83;;;23.08;;
23812;SDS011;12087;45.190;5.688;2023-03-01T07:47:30;33.00;;;22.65;;
23812;SDS011;12087;45.190;5.688;2023-03-01T07:52:53;31.95;;;22.30;;
23812;SDS011;12087;45.190;5.688;2023-03-01T07:58:15;33.63;;;23.30;;
23812;SDS011;12087;45.190;5.688;2023-03-01T08:03:39;28.77;;;22.85;;
23812;SDS011;12087;45.190;5.688;2023-03-01T08:09:03;30.48;;;22.58;;
23812;SDS011;12087;45.190;5.688;2023-03-01T08:14:25;34.63;;;23.02;;
23812;SDS011;12087;45.190;5.688;2023-03-01T08:19:47;32.35;;;24.23;;
23812;SDS011;12087;45.190;5.688;2023-03-01T08:25:11;37.22;;;25.15;;
23812;SDS011;12087;45.190;5.688;2023-03-01T08:30:33;33.03;;;24.60;;
23812;SDS011;12087;45.190;5.688;2023-03-01T08:36:02;33.63;;;23.80;;
23812;SDS011;12087;45.190;5.688;2023-03-01T08:41:28;31.67;;;23.08;;
23812;SDS011;12087;45.190;5.688;2023-03-01T08:46:51;37.03;;;24.30;;
23812;SDS011;12087;45.190;5.688;2023-03-01T08:52:15;35.97;;;24.83;;
23812;SDS011;12087;45.190;5.688;2023-03-01T08:57:39;33.60;;;23.20;;
23812;SDS011;12087;45.190;5.688;2023-03-01T09:03:02;32.80;;;23.77;;
23812;SDS011;12087;45.190;5.688;2023-03-01T09:08:24;37.67;;;25.58;;
23812;SDS011;12087;45.190;5.688;2023-03-01T09:13:48;37.70;;;25.67;;
23812;SDS011;12087;45.190;5.688;2023-03-01T09:19:11;35.83;;;25.00;;
23812;SDS011;12087;45.190;5.688;2023-03-01T09:24:33;36.65;;;25.25;;
23812;SDS011;12087;45.190;5.688;2023-03-01T09:29:57;34.67;;;24.15;;
23812;SDS011;12087;45.190;5.688;2023-03-01T09:35:19;41.15;;;29.55;;
23812;SDS011;12087;45.190;5.688;2023-03-01T09:40:43;45.47;;;26.98;;
23812;SDS011;12087;45.190;5.688;2023-03-01T09:46:09;39.35;;;25.83;;
23812;SDS011;12087;45.190;5.688;2023-03-01T09:51:34;40.58;;;27.60;;
23812;SDS011;12087;45.190;5.688;2023-03-01T09:57:01;56.78;;;36.97;;
23812;SDS011;12087;45.190;5.688;2023-03-01T10:02:30;41.17;;;29.80;;
23812;SDS011;12087;45.190;5.688;2023-03-01T10:08:02;43.00;;;31.42;;
23812;SDS011;12087;45.190;5.688;2023-03-01T10:13:37;37.17;;;25.60;;
23812;SDS011;12087;45.190;5.688;2023-03-01T10:19:11;40.00;;;28.02;;
23812;SDS011;12087;45.190;5.688;2023-03-01T10:24:38;39.87;;;27.60;;
23812;SDS011;12087;45.190;5.688;2023-03-01T10:30:02;41.60;;;26.95;;
23812;SDS011;12087;45.190;5.688;2023-03-01T10:35:34;37.72;;;25.33;;
23812;SDS011;12087;45.190;5.688;2023-03-01T10:40:56;52.63;;;34.13;;
23812;SDS011;12087;45.190;5.688;2023-03-01T10:46:25;43.33;;;30.20;;
23812;SDS011;12087;45.190;5.688;2023-03-01T10:51:51;39.55;;;25.83;;
23812;SDS011;12087;45.190;5.688;2023-03-01T10:57:24;42.65;;;27.90;;
23812;SDS011;12087;45.190;5.688;2023-03-01T11:03:02;40.42;;;24.83;;
23812;SDS011;12087;45.190;5.688;2023-03-01T11:08:42;35.85;;;25.85;;
23812;SDS011;12087;45.190;5.688;2023-03-01T11:14:07;35.83;;;24.52;;
23812;SDS011;12087;45.190;5.688;2023-03-01T11:19:36;35.28;;;25.73;;
23812;SDS011;12087;45.190;5.688;2023-03-01T11:25:00;36.28;;;25.08;;
23812;SDS011;12087;45.190;5.688;2023-03-01T11:30:24;38.10;;;25.52;;
23812;SDS011;12087;45.190;5.688;2023-03-01T11:35:53;37.95;;;25.63;;
23812;SDS011;12087;45.190;5.688;2023-03-01T11:41:23;40.40;;;23.95;;
23812;SDS011;12087;45.190;5.688;2023-03-01T11:46:52;34.13;;;24.95;;
23812;SDS011;12087;45.190;5.688;2023-03-01T11:52:36;37.55;;;25.33;;
23812;SDS011;12087;45.190;5.688;2023-03-01T11:58:17;35.00;;;24.77;;
23812;SDS011;12087;45.190;5.688;2023-03-01T12:15:51;36.60;;;25.90;;
23812;SDS011;12087;45.190;5.688;2023-03-01T12:21:30;33.97;;;23.85;;
23812;SDS011;12087;45.190;5.688;2023-03-01T12:27:10;33.50;;;25.00;;
23812;SDS011;12087;45.190;5.688;2023-03-01T12:32:48;33.08;;;23.88;;
23812;SDS011;12087;45.190;5.688;2023-03-01T12:38:37;40.53;;;24.95;;
23812;SDS011;12087;45.190;5.688;2023-03-01T12:44:06;35.78;;;25.15;;
23812;SDS011;12087;45.190;5.688;2023-03-01T12:49:38;42.95;;;24.73;;
23812;SDS011;12087;45.190;5.688;2023-03-01T12:55:06;34.03;;;23.88;;
23812;SDS011;12087;45.190;5.688;2023-03-01T13:00:40;33.70;;;23.60;;
23812;SDS011;12087;45.190;5.688;2023-03-01T13:06:11;36.45;;;24.58;;
23812;SDS011;12087;45.190;5.688;2023-03-01T13:11:40;41.42;;;25.60;;
23812;SDS011;12087;45.190;5.688;2023-03-01T13:17:03;37.72;;;24.63;;
23812;SDS011;12087;45.190;5.688;2023-03-01T13:22:28;37.08;;;24.38;;
23812;SDS011;12087;45.190;5.688;2023-03-01T13:27:53;39.30;;;25.65;;
23812;SDS011;12087;45.190;5.688;2023-03-01T13:34:06;34.38;;;24.73;;
23812;SDS011;12087;45.190;5.688;2023-03-01T13:40:56;33.58;;;23.67;;
23812;SDS011;12087;45.190;5.688;2023-03-01T13:46:09;32.88;;;23.35;;
23812;SDS011;12087;45.190;5.688;2023-03-01T13:51:35;35.50;;;24.90;;
23812;SDS011;12087;45.190;5.688;2023-03-01T13:57:00;38.70;;;24.55;;
23812;SDS011;12087;45.190;5.688;2023-03-01T14:02:23;38.17;;;24.33;;
23812;SDS011;12087;45.190;5.688;2023-03-01T14:07:50;31.52;;;23.67;;
23812;SDS011;12087;45.190;5.688;2023-03-01T14:13:19;37.72;;;23.50;;
23812;SDS011;12087;45.190;5.688;2023-03-01T14:18:52;31.58;;;22.80;;
23812;SDS011;12087;45.190;5.688;2023-03-01T14:24:23;34.28;;;23.60;;
23812;SDS011;12087;45.190;5.688;2023-03-01T14:29:55;33.75;;;24.02;;
23812;SDS011;12087;45.190;5.688;2023-03-01T14:35:20;37.03;;;24.15;;
23812;SDS011;12087;45.190;5.688;2023-03-01T14:40:43;36.90;;;24.40;;
23812;SDS011;12087;45.190;5.688;2023-03-01T14:46:15;34.10;;;24.00;;
23812;SDS011;12087;45.190;5.688;2023-03-01T14:51:41;34.63;;;23.88;;
23812;SDS011;12087;45.190;5.688;2023-03-01T14:57:04;32.55;;;24.45;;
23812;SDS011;12087;45.190;5.688;2023-03-01T15:02:28;31.05;;;22.35;;
23812;SDS011;12087;45.190;5.688;2023-03-01T15:07:52;31.98;;;24.15;;
23812;SDS011;12087;45.190;5.688;2023-03-01T15:13:19;34.42;;;23.67;;
23812;SDS011;12087;45.190;5.688;2023-03-01T15:18:45;35.63;;;24.57;;
23812;SDS011;12087;45.190;5.688;2023-03-01T15:24:16;34.80;;;25.08;;
23812;SDS011;12087;45.190;5.688;2023-03-01T15:29:41;35.60;;;24.75;;
23812;SDS011;12087;45.190;5.688;2023-03-01T15:41:02;35.80;;;24.52;;
23812;SDS011;12087;45.190;5.688;2023-03-01T15:46:27;35.58;;;25.45;;
23812;SDS011;12087;45.190;5.688;2023-03-01T15:51:53;55.10;;;26.25;;
23812;SDS011;12087;45.190;5.688;2023-03-01T15:57:17;36.17;;;25.48;;
23812;SDS011;12087;45.190;5.688;2023-03-01T16:02:40;34.75;;;24.80;;
23812;SDS011;12087;45.190;5.688;2023-03-01T16:08:05;35.78;;;25.35;;
23812;SDS011;12087;45.190;5.688;2023-03-01T16:13:29;34.25;;;24.92;;
23812;SDS011;12087;45.190;5.688;2023-03-01T16:18:51;36.97;;;24.90;;
23812;SDS011;12087;45.190;5.688;2023-03-01T16:24:16;38.15;;;25.70;;
23812;SDS011;12087;45.190;5.688;2023-03-01T16:29:38;34.58;;;25.58;;
23812;SDS011;12087;45.190;5.688;2023-03-01T16:35:00;36.22;;;26.17;;
23812;SDS011;12087;45.190;5.688;2023-03-01T16:40:25;35.25;;;25.63;;
23812;SDS011;12087;45.190;5.688;2023-03-01T16:45:49;37.20;;;25.67;;
23812;SDS011;12087;45.190;5.688;2023-03-01T16:51:12;37.55;;;26.25;;
23812;SDS011;12087;45.190;5.688;2023-03-01T16:56:36;39.80;;;26.10;;
23812;SDS011;12087;45.190;5.688;2023-03-01T17:01:59;40.35;;;26.50;;
23812;SDS011;12087;45.190;5.688;2023-03-01T17:07:21;38.33;;;25.80;;
23812;SDS011;12087;45.190;5.688;2023-03-01T17:12:45;43.10;;;26.60;;
23812;SDS011;12087;45.190;5.688;2023-03-01T17:18:10;37.15;;;24.70;;
23812;SDS011;12087;45.190;5.688;2023-03-01T17:23:32;38.35;;;27.15;;
23812;SDS011;12087;45.190;5.688;2023-03-01T17:28:57;42.58;;;26.55;;
23812;SDS011;12087;45.190;5.688;2023-03-01T17:34:19;37.40;;;27.10;;
23812;SDS011;12087;45.190;5.688;2023-03-01T17:39:41;39.38;;;24.90;;
23812;SDS011;12087;45.190;5.688;2023-03-01T17:45:05;37.83;;;25.27;;
23812;SDS011;12087;45.190;5.688;2023-03-01T17:50:28;39.40;;;27.17;;
23812;SDS011;12087;45.190;5.688;2023-03-01T17:55:57;38.88;;;26.73;;
23812;SDS011;12087;45.190;5.688;2023-03-01T18:01:23;36.92;;;27.20;;
23812;SDS011;12087;45.190;5.688;2023-03-01T18:06:45;39.30;;;26.55;;
23812;SDS011;12087;45.190;5.688;2023-03-01T18:12:07;38.15;;;25.85;;
23812;SDS011;12087;45.190;5.688;2023-03-01T18:17:32;41.45;;;27.50;;
23812;SDS011;12087;45.190;5.688;2023-03-01T18:22:55;38.58;;;26.75;;
23812;SDS011;12087;45.190;5.688;2023-03-01T18:28:18;39.78;;;26.42;;
23812;SDS011;12087;45.190;5.688;2023-03-01T18:33:41;40.45;;;27.70;;
23812;SDS011;12087;45.190;5.688;2023-03-01T18:39:04;45.85;;;27.70;;
23812;SDS011;12087;45.190;5.688;2023-03-01T18:44:28;36.80;;;26.92;;
23812;SDS011;12087;45.190;5.688;2023-03-01T18:49:51;40.58;;;27.02;;
23812;SDS011;12087;45.190;5.688;2023-03-01T18:55:14;45.03;;;27.23;;
23812;SDS011;12087;45.190;5.688;2023-03-01T19:00:36;38.85;;;26.88;;
23812;SDS011;12087;45.190;5.688;2023-03-01T19:06:00;42.60;;;29.17;;
23812;SDS011;12087;45.190;5.688;2023-03-01T19:11:24;43.58;;;28.15;;
23812;SDS011;12087;45.190;5.688;2023-03-01T19:16:49;40.15;;;27.25;;
23812;SDS011;12087;45.190;5.688;2023-03-01T19:22:13;40.30;;;27.73;;
23812;SDS011;12087;45.190;5.688;2023-03-01T19:27:35;51.03;;;28.13;;
23812;SDS011;12087;45.190;5.688;2023-03-01T19:32:57;39.17;;;27.80;;
23812;SDS011;12087;45.190;5.688;2023-03-01T19:38:21;41.83;;;29.67;;
23812;SDS011;12087;45.190;5.688;2023-03-01T19:43:44;41.20;;;28.95;;
23812;SDS011;12087;45.190;5.688;2023-03-01T19:49:07;40.53;;;28.83;;
23812;SDS011;12087;45.190;5.688;2023-03-01T19:54:31;45.42;;;29.92;;
23812;SDS011;12087;45.190;5.688;2023-03-01T19:59:53;39.92;;;28.10;;
23812;SDS011;12087;45.190;5.688;2023-03-01T20:05:15;40.97;;;29.50;;
23812;SDS011;12087;45.190;5.688;2023-03-01T20:10:39;48.95;;;30.80;;
23812;SDS011;12087;45.190;5.688;2023-03-01T20:16:03;42.08;;;30.15;;
23812;SDS011;12087;45.190;5.688;2023-03-01T20:21:26;43.90;;;29.75;;
23812;SDS011;12087;45.190;5.688;2023-03-01T20:26:49;44.72;;;30.52;;
23812;SDS011;12087;45.190;5.688;2023-03-01T20:32:12;48.45;;;30.73;;
23812;SDS011;12087;45.190;5.688;2023-03-01T20:37:34;41.78;;;29.15;;
23812;SDS011;12087;45.190;5.688;2023-03-01T20:42:58;46.60;;;30.65;;
23812;SDS011;12087;45.190;5.688;2023-03-01T20:48:20;47.22;;;31.42;;
23812;SDS011;12087;45.190;5.688;2023-03-01T20:53:43;42.72;;;29.60;;
23812;SDS011;12087;45.190;5.688;2023-03-01T20:59:07;44.90;;;31.20;;
23812;SDS011;12087;45.190;5.688;2023-03-01T21:04:30;44.63;;;30.13;;
23812;SDS011;12087;45.190;5.688;2023-03-01T21:09:53;42.92;;;30.80;;
23812;SDS011;12087;45.190;5.688;2023-03-01T21:15:16;43.25;;;31.05;;
23812;SDS011;12087;45.190;5.688;2023-03-01T21:20:39;47.67;;;29.20;;
23812;SDS011;12087;45.190;5.688;2023-03-01T21:26:02;45.42;;;29.83;;
23812;SDS011;12087;45.190;5.688;2023-03-01T21:31:27;47.20;;;31.52;;
23812;SDS011;12087;45.190;5.688;2023-03-01T21:36:53;43.42;;;29.40;;
23812;SDS011;12087;45.190;5.688;2023-03-01T21:42:15;43.75;;;30.70;;
23812;SDS011;12087;45.190;5.688;2023-03-01T21:47:38;44.08;;;31.08;;
23812;SDS011;12087;45.190;5.688;2023-03-01T21:53:01;44.30;;;30.73;;
23812;SDS011;12087;45.190;5.688;2023-03-01T21:58:24;44.75;;;30.42;;
23812;SDS011;12087;45.190;5.688;2023-03-01T22:03:49;44.00;;;31.20;;
23812;SDS011;12087;45.190;5.688;2023-03-01T22:09:12;47.47;;;30.92;;
23812;SDS011;12087;45.190;5.688;2023-03-01T22:14:36;47.40;;;31.83;;
23812;SDS011;12087;45.190;5.688;2023-03-01T22:20:01;46.10;;;31.80;;
23812;SDS011;12087;45.190;5.688;2023-03-01T22:25:23;45.05;;;31.45;;
23812;SDS011;12087;45.190;5.688;2023-03-01T22:30:45;42.35;;;30.02;;
23812;SDS011;12087;45.190;5.688;2023-03-01T22:36:09;44.33;;;31.58;;
23812;SDS011;12087;45.190;5.688;2023-03-01T22:41:32;50.53;;;30.23;;
23812;SDS011;12087;45.190;5.688;2023-03-01T22:46:55;45.72;;;30.65;;
23812;SDS011;12087;45.190;5.688;2023-03-01T22:52:19;48.58;;;31.73;;
23812;SDS011;12087;45.190;5.688;2023-03-01T22:57:41;51.05;;;29.55;;
23812;SDS011;12087;45.190;5.688;2023-03-01T23:03:04;48.00;;;30.58;;
23812;SDS011;12087;45.190;5.688;2023-03-01T23:08:27;46.00;;;32.40;;
23812;SDS011;12087;45.190;5.688;2023-03-01T23:13:50;44.53;;;32.30;;
23812;SDS011;12087;45.190;5.688;2023-03-01T23:19:13;46.72;;;30.50;;
23812;SDS011;12087;45.190;5.688;2023-03-01T23:24:37;47.70;;;31.45;;
23812;SDS011;12087;45.190;5.688;2023-03-01T23:29:59;43.78;;;30.52;;
23812;SDS011;12087;45.190;5.688;2023-03-01T23:35:22;47.08;;;31.83;;
23812;SDS011;12087;45.190;5.688;2023-03-01T23:40:45;48.33;;;32.30;;
23812;SDS011;12087;45.190;5.688;2023-03-01T23:46:08;47.65;;;32.15;;
23812;SDS011;12087;45.190;5.688;2023-03-01T23:51:33;45.42;;;31.15;;
23812;SDS011;12087;45.190;5.688;2023-03-01T23:56:57;50.83;;;33.17;;
